Terminal Aerodrome Forecast
Issued by NWS

Home | Current Version | Previous Version | Text Only | Print | Product List | Glossary On
Versions: 1 2 3 4 5 6 7 8 9 10 11 12 13 14 15 16 17 18 19 20 21 22 23 24
967
FTUS42 TJSJ 272340
TAFKPK
TAF
TKPK 272340Z 2800/2824 VRB04KT P6SM FEW018
     FM281300 19010KT P6SM FEW020 SCT040
     FM282300 VRB04KT P6SM FEW018
      AMD NOT SKED 2802/2811=

USA.gov is the U.S. government's official web portal to all federal, state and local government web resources and services.